createdAt,value
2018-06-10T00:02:15.538Z,3.84
2018-06-10T00:08:10.578Z,4.27
2018-06-10T00:14:05.617Z,3.67
2018-06-10T00:20:00.587Z,4.09
2018-06-10T00:25:55.583Z,3.94
2018-06-10T00:31:50.577Z,4
2018-06-10T00:37:45.626Z,3.91
2018-06-10T00:43:40.578Z,3.6
2018-06-10T00:49:35.601Z,3.46
2018-06-10T00:55:30.590Z,3.54
2018-06-10T01:01:40.632Z,4.22
2018-06-10T01:07:20.674Z,3.69
2018-06-10T01:13:15.702Z,3.53
2018-06-10T01:19:10.593Z,3.47
2018-06-10T01:25:05.587Z,3.58
2018-06-10T01:31:00.603Z,3.55
2018-06-10T01:36:55.627Z,3.16
2018-06-10T01:42:50.593Z,3.21
2018-06-10T01:48:45.637Z,3.69
2018-06-10T01:54:40.620Z,3.26
2018-06-10T02:00:35.642Z,3.82
2018-06-10T02:06:30.672Z,3.83
2018-06-10T02:12:25.652Z,3.81
2018-06-10T02:18:20.651Z,3.83
2018-06-10T02:24:15.716Z,3.48
2018-06-10T02:30:10.836Z,3.21
2018-06-10T02:36:05.714Z,3.08
2018-06-10T02:42:00.652Z,2.81
2018-06-10T02:47:55.663Z,3.05
2018-06-10T02:53:50.676Z,4.07
2018-06-10T02:59:45.734Z,4.6
2018-06-10T03:05:40.704Z,4.93
2018-06-10T03:11:35.684Z,4.5
2018-06-10T03:17:30.686Z,4.96
2018-06-10T03:23:25.692Z,4.41
2018-06-10T03:29:20.713Z,4.82
2018-06-10T03:35:15.683Z,5.45
2018-06-10T03:41:10.704Z,5.33
2018-06-10T03:47:05.658Z,5.13
2018-06-10T03:53:00.677Z,4.88
2018-06-10T03:58:55.707Z,4.6
2018-06-10T04:04:50.735Z,4.37
2018-06-10T04:10:45.685Z,4.47
2018-06-10T04:16:40.710Z,4.13
2018-06-10T04:22:35.780Z,3.93
2018-06-10T04:28:30.729Z,4.07
2018-06-10T04:34:25.772Z,4.23
2018-06-10T04:40:20.737Z,4.01
2018-06-10T04:46:15.722Z,3.95
2018-06-10T04:52:10.750Z,4.17
2018-06-10T04:58:05.722Z,4.25
2018-06-10T05:04:00.712Z,3.14
2018-06-10T05:09:55.724Z,3.79
2018-06-10T05:15:50.699Z,3.88
2018-06-10T05:21:45.723Z,3.66
2018-06-10T05:27:40.739Z,4
2018-06-10T05:33:35.774Z,3.99
2018-06-10T05:39:30.743Z,4.27
2018-06-10T05:45:25.724Z,3.88
2018-06-10T05:51:20.779Z,4.54
2018-06-10T05:57:15.745Z,4.39
2018-06-10T06:03:10.775Z,4.34
2018-06-10T06:09:05.790Z,3.87
2018-06-10T06:15:00.768Z,4.16
2018-06-10T06:20:55.855Z,4.61
2018-06-10T06:26:50.779Z,4.29
2018-06-10T06:32:45.819Z,5.15
2018-06-10T06:38:40.752Z,5.57
2018-06-10T06:44:35.836Z,6.18
2018-06-10T06:50:30.800Z,5.69
2018-06-10T06:56:25.794Z,5.27
2018-06-10T07:02:20.775Z,4.53
2018-06-10T07:08:15.820Z,5.36
2018-06-10T07:14:10.796Z,4.03
2018-06-10T07:20:05.923Z,4.4
2018-06-10T07:26:00.826Z,5.03
2018-06-10T07:31:55.801Z,5.23
2018-06-10T07:37:50.792Z,4.15
2018-06-10T07:43:45.843Z,4.31
2018-06-10T07:49:40.841Z,4.02
2018-06-10T08:01:30.808Z,4.48
2018-06-10T08:07:25.811Z,4.14
2018-06-10T08:13:20.860Z,4.32
2018-06-10T08:19:15.845Z,4.63
2018-06-10T08:25:10.848Z,5.04
2018-06-10T08:31:05.905Z,5.28
2018-06-10T08:37:01.075Z,4.55
2018-06-10T08:43:03.954Z,4.7
2018-06-10T08:48:57.905Z,4.94
2018-06-10T09:00:40.872Z,5
2018-06-10T09:06:47.886Z,5.34
2018-06-10T09:12:35.876Z,4.9
2018-06-10T09:18:29.965Z,4.91
2018-06-10T09:24:28.886Z,5.21
2018-06-10T09:30:51.934Z,5.07
2018-06-10T09:36:14.961Z,5.72
2018-06-10T09:42:06.932Z,5.12
2018-06-10T09:48:11.969Z,7.36
2018-06-10T09:54:02.960Z,7.61
2018-06-10T09:59:53.916Z,5.57
2018-06-10T10:05:57.056Z,10.74
2018-06-10T10:11:41.887Z,18.74
2018-06-10T10:17:38.907Z,50.88
2018-06-10T10:23:50.942Z,332.17
2018-06-10T10:29:36.927Z,344.77
2018-06-10T10:35:20.897Z,393.47
2018-06-10T10:41:24.054Z,390.15
2018-06-10T10:47:10.922Z,23.75
2018-06-10T10:53:05.892Z,363.41
2018-06-10T10:59:00.929Z,245.97
2018-06-10T11:04:55.936Z,43.84
2018-06-10T11:10:50.909Z,71.56
2018-06-10T11:16:45.939Z,25.85
2018-06-10T11:22:41.012Z,15.94
2018-06-10T11:28:35.931Z,5.55
2018-06-10T11:34:31.009Z,13.5
2018-06-10T11:40:25.970Z,63.03
2018-06-10T11:46:20.944Z,10.27
2018-06-10T11:52:16.038Z,234.64
2018-06-10T11:58:10.964Z,46.51
2018-06-10T12:04:05.988Z,234.38
2018-06-10T12:10:00.961Z,18.93
2018-06-10T12:15:55.968Z,5.68
2018-06-10T12:21:50.942Z,328.93
2018-06-10T12:27:45.967Z,326.43
2018-06-10T12:33:40.980Z,46.24
2018-06-10T12:39:35.996Z,6.59
2018-06-10T12:45:31.043Z,325.83
2018-06-10T12:51:25.985Z,99.4
2018-06-10T12:57:20.961Z,232.03
2018-06-10T13:03:15.992Z,319.66
2018-06-10T13:09:11.018Z,56.83
2018-06-10T13:15:06.039Z,238.49
2018-06-10T13:21:01.000Z,41.69
2018-06-10T13:26:56.053Z,10.3
2018-06-10T13:32:51.024Z,123.39
2018-06-10T13:38:46.037Z,294.02
2018-06-10T13:44:41.000Z,8.28
2018-06-10T13:50:36.059Z,20.02
2018-06-10T13:56:31.031Z,5.38
2018-06-10T14:02:26.050Z,38.51
2018-06-10T14:08:21.048Z,210.36
2018-06-10T14:14:16.077Z,167.6
2018-06-10T14:20:11.252Z,46.08
2018-06-10T14:26:06.032Z,206.85
2018-06-10T14:32:01.040Z,46.4
2018-06-10T14:37:56.083Z,8.82
2018-06-10T14:43:51.151Z,192.59
2018-06-10T14:49:46.062Z,69.06
2018-06-10T14:55:41.081Z,3.69
2018-06-10T15:01:36.031Z,16.91
2018-06-10T15:07:31.049Z,51.93
2018-06-10T15:13:26.064Z,57.67
2018-06-10T15:54:51.087Z,168.7
2018-06-10T16:00:46.078Z,89.76
2018-06-10T16:06:41.113Z,400.51
2018-06-10T16:11:14.299Z,324.11
2018-06-10T16:17:09.311Z,281.63
2018-06-10T16:23:04.318Z,179.76
2018-06-10T16:28:59.312Z,350.02
2018-06-10T16:34:54.305Z,544.61
2018-06-10T16:40:49.319Z,574.1
2018-06-10T16:46:44.302Z,509.06
2018-06-10T16:52:39.315Z,480.26
2018-06-10T16:58:34.301Z,409.44
2018-06-10T17:04:29.313Z,370.41
2018-06-10T17:10:24.356Z,329.32
2018-06-10T17:16:19.394Z,285
2018-06-10T17:22:14.329Z,282.51
2018-06-10T17:28:09.334Z,281.26
2018-06-10T17:34:04.310Z,231.36
2018-06-10T17:39:59.373Z,210.27
2018-06-10T17:45:54.366Z,117.86
2018-06-10T17:51:49.364Z,56.32
2018-06-10T17:57:44.340Z,89.93
2018-06-10T18:03:39.508Z,68.79
2018-06-10T18:09:34.329Z,66.98
2018-06-10T18:15:29.360Z,58.16
2018-06-10T18:21:24.381Z,61.26
2018-06-10T18:27:19.571Z,55.08
2018-06-10T18:33:14.445Z,54.12
2018-06-10T18:39:09.438Z,52.75
2018-06-10T18:45:05.093Z,44.04
2018-06-10T18:50:59.370Z,42.54
2018-06-10T18:56:54.451Z,47.26
2018-06-10T19:02:49.458Z,42.6
2018-06-10T19:08:44.401Z,27.16
2018-06-10T19:14:39.692Z,44.04
2018-06-10T19:20:34.492Z,31.69
2018-06-10T19:26:29.379Z,30.55
2018-06-10T19:32:24.494Z,26.9
2018-06-10T19:38:22.881Z,27.73
2018-06-10T19:44:14.389Z,23.64
2018-06-10T19:50:10.186Z,36.11
2018-06-10T19:56:11.488Z,37.63
2018-06-10T20:01:59.603Z,32.03
2018-06-10T20:07:54.460Z,36.43
2018-06-10T20:13:49.429Z,35.4
2018-06-10T20:19:44.584Z,40.2
2018-06-10T20:25:39.450Z,36.74
2018-06-10T20:31:34.441Z,24.5
2018-06-10T20:37:29.467Z,27.81
2018-06-10T20:43:24.538Z,24.92
2018-06-10T20:49:19.502Z,32.48
2018-06-10T20:55:14.543Z,28.07
2018-06-10T21:01:09.617Z,25.18
2018-06-10T21:07:04.439Z,24.97
2018-06-10T21:12:59.474Z,25.03
2018-06-10T21:18:54.792Z,25.35
2018-06-10T21:24:49.449Z,25.84
2018-06-10T21:30:44.462Z,24.47
2018-06-10T21:36:39.472Z,21.25
2018-06-10T21:42:34.495Z,22.93
2018-06-10T21:48:29.510Z,23.4
2018-06-10T21:54:24.540Z,2.53
2018-06-10T22:00:19.494Z,2.27
2018-06-10T22:06:14.921Z,2.24
2018-06-10T22:12:09.481Z,1.97
2018-06-10T22:18:04.470Z,2
2018-06-10T22:23:59.736Z,2.11
2018-06-10T22:29:54.549Z,1.96
2018-06-10T22:35:49.502Z,1.91
2018-06-10T22:41:45.003Z,2.33
2018-06-10T22:47:39.526Z,2.17
2018-06-10T22:53:34.524Z,1.67
2018-06-10T22:59:29.516Z,1.53
2018-06-10T23:05:25.286Z,1.64
2018-06-10T23:11:19.540Z,1.73
2018-06-10T23:17:15.389Z,2.11
2018-06-10T23:23:09.535Z,1.79
2018-06-10T23:29:04.546Z,2.09
2018-06-10T23:34:59.536Z,2.52
2018-06-10T23:40:55.200Z,2.18
2018-06-10T23:46:49.939Z,2.36
2018-06-10T23:52:44.546Z,2.52
2018-06-10T23:58:40.496Z,2.39
